sensor_id;sensor_type;location;lat;lon;timestamp;P1;durP1;ratioP1;P2;durP2;ratioP2
75246;SDS011;63844;50.042;19.224;2023-01-24T09:34:11;12.20;;;4.60;;
75246;SDS011;63844;50.042;19.224;2023-01-24T09:36:37;21.40;;;8.20;;
75246;SDS011;63844;50.042;19.224;2023-01-24T09:39:04;16.70;;;6.30;;
75246;SDS011;63844;50.042;19.224;2023-01-24T09:41:43;21.90;;;6.90;;
75246;SDS011;63844;50.042;19.224;2023-01-24T09:45:07;20.70;;;8.30;;
75246;SDS011;63844;50.042;19.224;2023-01-24T09:47:21;25.90;;;8.30;;
75246;SDS011;63844;50.042;19.224;2023-01-24T09:50:04;23.70;;;9.00;;
75246;SDS011;63844;50.042;19.224;2023-01-24T09:52:39;21.90;;;8.20;;
75246;SDS011;63844;50.042;19.224;2023-01-24T09:55:16;16.50;;;6.50;;
75246;SDS011;63844;50.042;19.224;2023-01-24T09:57:51;17.40;;;7.40;;
75246;SDS011;63844;50.042;19.224;2023-01-24T10:00:44;16.80;;;6.50;;
75246;SDS011;63844;50.042;19.224;2023-01-24T10:03:14;12.10;;;4.80;;
75246;SDS011;63844;50.042;19.224;2023-01-24T10:05:46;15.50;;;6.30;;
75246;SDS011;63844;50.042;19.224;2023-01-24T10:08:24;13.30;;;5.60;;
75246;SDS011;63844;50.042;19.224;2023-01-24T10:26:07;11.60;;;5.00;;
75246;SDS011;63844;50.042;19.224;2023-01-24T10:28:53;15.50;;;6.70;;
75246;SDS011;63844;50.042;19.224;2023-01-24T10:31:28;16.80;;;6.70;;
75246;SDS011;63844;50.042;19.224;2023-01-24T10:34:04;16.40;;;7.60;;
75246;SDS011;63844;50.042;19.224;2023-01-24T10:36:54;17.50;;;7.80;;
75246;SDS011;63844;50.042;19.224;2023-01-24T10:39:25;16.30;;;7.00;;
75246;SDS011;63844;50.042;19.224;2023-01-24T10:41:53;17.20;;;7.00;;
75246;SDS011;63844;50.042;19.224;2023-01-24T10:47:16;13.50;;;5.40;;
75246;SDS011;63844;50.042;19.224;2023-01-24T10:49:53;17.20;;;6.20;;
75246;SDS011;63844;50.042;19.224;2023-01-24T10:52:26;13.90;;;5.80;;
75246;SDS011;63844;50.042;19.224;2023-01-24T10:57:26;17.70;;;7.00;;
75246;SDS011;63844;50.042;19.224;2023-01-24T11:02:49;18.00;;;8.00;;
75246;SDS011;63844;50.042;19.224;2023-01-24T11:05:18;23.70;;;10.20;;
75246;SDS011;63844;50.042;19.224;2023-01-24T11:07:53;19.30;;;8.10;;
75246;SDS011;63844;50.042;19.224;2023-01-24T11:10:26;15.80;;;5.70;;
75246;SDS011;63844;50.042;19.224;2023-01-24T11:13:23;11.30;;;4.60;;
75246;SDS011;63844;50.042;19.224;2023-01-24T11:16:08;20.90;;;7.00;;
75246;SDS011;63844;50.042;19.224;2023-01-24T11:18:51;18.40;;;7.60;;
75246;SDS011;63844;50.042;19.224;2023-01-24T11:21:26;20.80;;;9.60;;
75246;SDS011;63844;50.042;19.224;2023-01-24T11:26:35;18.80;;;8.50;;
75246;SDS011;63844;50.042;19.224;2023-01-24T11:29:05;18.40;;;6.90;;
75246;SDS011;63844;50.042;19.224;2023-01-24T11:31:48;15.00;;;5.00;;
75246;SDS011;63844;50.042;19.224;2023-01-24T11:34:24;9.60;;;4.20;;
75246;SDS011;63844;50.042;19.224;2023-01-24T11:39:36;14.90;;;5.20;;
75246;SDS011;63844;50.042;19.224;2023-01-24T11:42:16;18.50;;;7.40;;
75246;SDS011;63844;50.042;19.224;2023-01-24T11:47:33;22.00;;;9.00;;
75246;SDS011;63844;50.042;19.224;2023-01-24T12:02:20;14.20;;;5.70;;
75246;SDS011;63844;50.042;19.224;2023-01-24T12:13:39;16.60;;;6.20;;
75246;SDS011;63844;50.042;19.224;2023-01-24T12:21:59;15.60;;;5.80;;
75246;SDS011;63844;50.042;19.224;2023-01-24T12:27:02;11.20;;;3.20;;
75246;SDS011;63844;50.042;19.224;2023-01-24T12:32:42;12.80;;;6.20;;
75246;SDS011;63844;50.042;19.224;2023-01-24T12:38:16;14.00;;;6.10;;
75246;SDS011;63844;50.042;19.224;2023-01-24T12:46:25;16.50;;;5.70;;
75246;SDS011;63844;50.042;19.224;2023-01-24T12:49:05;15.90;;;6.10;;
75246;SDS011;63844;50.042;19.224;2023-01-24T12:54:18;14.60;;;6.00;;
75246;SDS011;63844;50.042;19.224;2023-01-24T12:56:52;13.40;;;5.80;;
75246;SDS011;63844;50.042;19.224;2023-01-24T12:59:23;13.30;;;6.00;;
75246;SDS011;63844;50.042;19.224;2023-01-24T13:12:42;14.70;;;6.50;;
75246;SDS011;63844;50.042;19.224;2023-01-24T13:17:48;19.30;;;7.30;;
75246;SDS011;63844;50.042;19.224;2023-01-24T13:23:22;10.90;;;5.40;;
75246;SDS011;63844;50.042;19.224;2023-01-24T13:26:16;12.50;;;4.90;;
75246;SDS011;63844;50.042;19.224;2023-01-24T13:28:57;17.80;;;6.40;;
75246;SDS011;63844;50.042;19.224;2023-01-24T13:34:54;11.90;;;5.70;;
75246;SDS011;63844;50.042;19.224;2023-01-24T13:37:26;14.60;;;6.20;;
75246;SDS011;63844;50.042;19.224;2023-01-24T13:39:59;12.40;;;4.60;;
75246;SDS011;63844;50.042;19.224;2023-01-24T13:42:35;11.90;;;4.90;;
75246;SDS011;63844;50.042;19.224;2023-01-24T13:47:52;14.80;;;6.10;;
75246;SDS011;63844;50.042;19.224;2023-01-24T13:50:20;18.00;;;7.50;;
75246;SDS011;63844;50.042;19.224;2023-01-24T13:52:55;21.30;;;8.50;;
75246;SDS011;63844;50.042;19.224;2023-01-24T13:58:16;15.80;;;6.90;;
75246;SDS011;63844;50.042;19.224;2023-01-24T14:03:34;12.40;;;6.10;;
75246;SDS011;63844;50.042;19.224;2023-01-24T14:18:57;7.00;;;3.10;;
75246;SDS011;63844;50.042;19.224;2023-01-24T14:21:30;7.80;;;3.50;;
75246;SDS011;63844;50.042;19.224;2023-01-24T14:24:15;7.20;;;3.60;;
75246;SDS011;63844;50.042;19.224;2023-01-24T14:26:50;7.60;;;3.50;;
75246;SDS011;63844;50.042;19.224;2023-01-24T14:29:19;7.70;;;2.90;;
75246;SDS011;63844;50.042;19.224;2023-01-24T14:31:50;7.30;;;3.30;;
75246;SDS011;63844;50.042;19.224;2023-01-24T14:34:24;8.80;;;4.10;;
75246;SDS011;63844;50.042;19.224;2023-01-24T14:37:02;11.40;;;4.60;;
75246;SDS011;63844;50.042;19.224;2023-01-24T14:39:34;8.90;;;3.90;;
75246;SDS011;63844;50.042;19.224;2023-01-24T14:47:21;9.10;;;4.40;;
75246;SDS011;63844;50.042;19.224;2023-01-24T14:49:50;7.50;;;3.40;;
75246;SDS011;63844;50.042;19.224;2023-01-24T14:52:25;6.20;;;3.20;;
75246;SDS011;63844;50.042;19.224;2023-01-24T14:55:14;8.30;;;4.20;;
75246;SDS011;63844;50.042;19.224;2023-01-24T14:57:50;7.60;;;3.70;;
75246;SDS011;63844;50.042;19.224;2023-01-24T15:00:17;5.00;;;2.60;;
75246;SDS011;63844;50.042;19.224;2023-01-24T15:02:53;9.00;;;3.50;;
75246;SDS011;63844;50.042;19.224;2023-01-24T15:08:00;9.10;;;3.60;;
75246;SDS011;63844;50.042;19.224;2023-01-24T15:10:29;11.30;;;5.00;;
75246;SDS011;63844;50.042;19.224;2023-01-24T15:13:01;8.50;;;3.90;;
75246;SDS011;63844;50.042;19.224;2023-01-24T15:15:31;9.60;;;4.70;;
75246;SDS011;63844;50.042;19.224;2023-01-24T15:18:00;11.90;;;5.40;;
75246;SDS011;63844;50.042;19.224;2023-01-24T15:20:29;11.30;;;5.90;;
75246;SDS011;63844;50.042;19.224;2023-01-24T15:22:58;9.50;;;4.90;;
75246;SDS011;63844;50.042;19.224;2023-01-24T15:25:27;9.80;;;4.60;;
75246;SDS011;63844;50.042;19.224;2023-01-24T15:27:54;9.00;;;4.00;;
75246;SDS011;63844;50.042;19.224;2023-01-24T15:30:27;7.70;;;3.10;;
75246;SDS011;63844;50.042;19.224;2023-01-24T15:38:27;5.40;;;2.20;;
75246;SDS011;63844;50.042;19.224;2023-01-24T15:41:30;13.50;;;4.60;;
75246;SDS011;63844;50.042;19.224;2023-01-24T15:44:12;8.70;;;4.10;;
75246;SDS011;63844;50.042;19.224;2023-01-24T15:46:41;9.60;;;3.70;;
75246;SDS011;63844;50.042;19.224;2023-01-24T15:49:34;7.00;;;3.20;;
75246;SDS011;63844;50.042;19.224;2023-01-24T15:57:20;8.20;;;3.00;;
75246;SDS011;63844;50.042;19.224;2023-01-24T15:59:54;8.70;;;4.00;;
75246;SDS011;63844;50.042;19.224;2023-01-24T16:02:23;6.70;;;2.80;;
75246;SDS011;63844;50.042;19.224;2023-01-24T16:04:50;6.10;;;2.80;;
75246;SDS011;63844;50.042;19.224;2023-01-24T16:07:17;9.00;;;2.70;;
75246;SDS011;63844;50.042;19.224;2023-01-24T16:09:47;6.00;;;3.10;;
75246;SDS011;63844;50.042;19.224;2023-01-24T16:12:15;7.50;;;3.50;;
75246;SDS011;63844;50.042;19.224;2023-01-24T16:14:49;6.00;;;2.60;;
75246;SDS011;63844;50.042;19.224;2023-01-24T16:17:18;8.90;;;3.60;;
75246;SDS011;63844;50.042;19.224;2023-01-24T16:19:46;8.30;;;3.20;;
75246;SDS011;63844;50.042;19.224;2023-01-24T16:22:12;4.90;;;2.30;;
75246;SDS011;63844;50.042;19.224;2023-01-24T16:24:39;4.60;;;1.70;;
75246;SDS011;63844;50.042;19.224;2023-01-24T16:27:05;6.90;;;2.60;;
75246;SDS011;63844;50.042;19.224;2023-01-24T16:29:35;6.60;;;3.30;;
75246;SDS011;63844;50.042;19.224;2023-01-24T16:32:01;6.50;;;2.60;;
75246;SDS011;63844;50.042;19.224;2023-01-24T16:34:28;9.10;;;4.60;;
75246;SDS011;63844;50.042;19.224;2023-01-24T16:36:54;10.90;;;5.20;;
75246;SDS011;63844;50.042;19.224;2023-01-24T16:39:21;6.70;;;3.10;;
75246;SDS011;63844;50.042;19.224;2023-01-24T16:41:49;8.90;;;3.90;;
75246;SDS011;63844;50.042;19.224;2023-01-24T16:44:17;9.30;;;3.60;;
75246;SDS011;63844;50.042;19.224;2023-01-24T16:46:48;7.70;;;3.30;;
75246;SDS011;63844;50.042;19.224;2023-01-24T16:49:16;9.20;;;3.70;;
75246;SDS011;63844;50.042;19.224;2023-01-24T16:51:43;5.90;;;2.30;;
75246;SDS011;63844;50.042;19.224;2023-01-24T16:54:10;8.20;;;3.80;;
75246;SDS011;63844;50.042;19.224;2023-01-24T16:56:37;5.90;;;3.20;;
75246;SDS011;63844;50.042;19.224;2023-01-24T16:59:04;3.70;;;1.50;;
75246;SDS011;63844;50.042;19.224;2023-01-24T17:01:30;7.00;;;3.60;;
75246;SDS011;63844;50.042;19.224;2023-01-24T17:03:57;4.90;;;2.00;;
75246;SDS011;63844;50.042;19.224;2023-01-24T17:06:24;5.70;;;2.10;;
75246;SDS011;63844;50.042;19.224;2023-01-24T17:08:51;7.10;;;3.60;;
75246;SDS011;63844;50.042;19.224;2023-01-24T17:11:18;9.00;;;3.60;;
75246;SDS011;63844;50.042;19.224;2023-01-24T17:13:46;7.80;;;3.70;;
75246;SDS011;63844;50.042;19.224;2023-01-24T17:16:12;10.50;;;4.30;;
75246;SDS011;63844;50.042;19.224;2023-01-24T17:18:39;10.60;;;4.40;;
75246;SDS011;63844;50.042;19.224;2023-01-24T17:21:07;8.30;;;3.00;;
75246;SDS011;63844;50.042;19.224;2023-01-24T17:23:36;9.30;;;4.30;;
75246;SDS011;63844;50.042;19.224;2023-01-24T17:26:07;8.70;;;4.00;;
75246;SDS011;63844;50.042;19.224;2023-01-24T17:28:37;6.70;;;3.50;;
75246;SDS011;63844;50.042;19.224;2023-01-24T17:31:11;11.10;;;4.20;;
75246;SDS011;63844;50.042;19.224;2023-01-24T17:33:39;9.90;;;4.50;;
75246;SDS011;63844;50.042;19.224;2023-01-24T17:36:07;11.90;;;4.60;;
75246;SDS011;63844;50.042;19.224;2023-01-24T17:38:35;9.50;;;3.20;;
75246;SDS011;63844;50.042;19.224;2023-01-24T17:41:02;11.10;;;4.50;;
75246;SDS011;63844;50.042;19.224;2023-01-24T17:43:29;10.40;;;4.00;;
75246;SDS011;63844;50.042;19.224;2023-01-24T17:45:57;14.00;;;6.20;;
75246;SDS011;63844;50.042;19.224;2023-01-24T17:48:26;16.30;;;6.50;;
75246;SDS011;63844;50.042;19.224;2023-01-24T17:50:53;19.20;;;7.70;;
75246;SDS011;63844;50.042;19.224;2023-01-24T17:53:22;14.20;;;5.50;;
75246;SDS011;63844;50.042;19.224;2023-01-24T17:55:53;10.70;;;4.50;;
75246;SDS011;63844;50.042;19.224;2023-01-24T17:58:21;13.40;;;4.70;;
75246;SDS011;63844;50.042;19.224;2023-01-24T18:00:50;6.80;;;3.10;;
75246;SDS011;63844;50.042;19.224;2023-01-24T18:03:18;10.90;;;4.70;;
75246;SDS011;63844;50.042;19.224;2023-01-24T18:05:48;11.30;;;5.40;;
75246;SDS011;63844;50.042;19.224;2023-01-24T18:08:16;9.70;;;4.30;;
75246;SDS011;63844;50.042;19.224;2023-01-24T18:10:43;8.00;;;3.30;;
75246;SDS011;63844;50.042;19.224;2023-01-24T18:13:10;11.40;;;3.80;;
75246;SDS011;63844;50.042;19.224;2023-01-24T18:15:37;8.70;;;3.80;;
75246;SDS011;63844;50.042;19.224;2023-01-24T18:18:05;5.30;;;2.80;;
75246;SDS011;63844;50.042;19.224;2023-01-24T18:20:32;20.70;;;9.10;;
75246;SDS011;63844;50.042;19.224;2023-01-24T18:23:00;10.20;;;4.50;;
75246;SDS011;63844;50.042;19.224;2023-01-24T18:25:26;25.40;;;12.20;;
75246;SDS011;63844;50.042;19.224;2023-01-24T18:27:53;26.20;;;13.70;;
75246;SDS011;63844;50.042;19.224;2023-01-24T18:30:20;35.50;;;17.40;;
75246;SDS011;63844;50.042;19.224;2023-01-24T18:32:46;43.40;;;21.70;;
75246;SDS011;63844;50.042;19.224;2023-01-24T18:35:13;43.80;;;24.00;;
75246;SDS011;63844;50.042;19.224;2023-01-24T18:37:39;29.60;;;15.60;;
75246;SDS011;63844;50.042;19.224;2023-01-24T18:40:07;30.30;;;16.40;;
75246;SDS011;63844;50.042;19.224;2023-01-24T18:42:35;31.00;;;16.40;;
75246;SDS011;63844;50.042;19.224;2023-01-24T18:45:02;22.70;;;11.70;;
75246;SDS011;63844;50.042;19.224;2023-01-24T18:47:29;23.70;;;12.70;;
75246;SDS011;63844;50.042;19.224;2023-01-24T18:49:55;13.10;;;6.70;;
75246;SDS011;63844;50.042;19.224;2023-01-24T18:52:23;26.80;;;13.00;;
75246;SDS011;63844;50.042;19.224;2023-01-24T18:54:49;19.80;;;10.00;;
75246;SDS011;63844;50.042;19.224;2023-01-24T18:57:16;21.10;;;9.60;;
75246;SDS011;63844;50.042;19.224;2023-01-24T18:59:43;15.50;;;7.70;;
75246;SDS011;63844;50.042;19.224;2023-01-24T19:02:09;7.40;;;3.10;;
75246;SDS011;63844;50.042;19.224;2023-01-24T19:04:36;12.70;;;6.10;;
75246;SDS011;63844;50.042;19.224;2023-01-24T19:07:04;11.40;;;5.70;;
75246;SDS011;63844;50.042;19.224;2023-01-24T19:09:32;8.00;;;3.80;;
75246;SDS011;63844;50.042;19.224;2023-01-24T19:11:59;8.40;;;3.10;;
75246;SDS011;63844;50.042;19.224;2023-01-24T19:14:25;8.60;;;4.10;;
75246;SDS011;63844;50.042;19.224;2023-01-24T19:16:52;13.90;;;6.30;;
75246;SDS011;63844;50.042;19.224;2023-01-24T19:19:18;11.00;;;4.90;;
75246;SDS011;63844;50.042;19.224;2023-01-24T19:21:51;7.00;;;2.90;;
75246;SDS011;63844;50.042;19.224;2023-01-24T19:24:18;6.90;;;2.90;;
75246;SDS011;63844;50.042;19.224;2023-01-24T19:26:45;10.70;;;5.00;;
75246;SDS011;63844;50.042;19.224;2023-01-24T19:29:12;9.10;;;4.40;;
75246;SDS011;63844;50.042;19.224;2023-01-24T19:31:39;10.60;;;3.30;;
75246;SDS011;63844;50.042;19.224;2023-01-24T19:34:05;11.90;;;5.30;;
75246;SDS011;63844;50.042;19.224;2023-01-24T19:36:32;12.70;;;5.20;;
75246;SDS011;63844;50.042;19.224;2023-01-24T19:38:59;12.70;;;6.00;;
75246;SDS011;63844;50.042;19.224;2023-01-24T19:41:28;10.50;;;5.00;;
75246;SDS011;63844;50.042;19.224;2023-01-24T19:43:55;11.60;;;5.20;;
75246;SDS011;63844;50.042;19.224;2023-01-24T19:46:23;16.10;;;6.10;;
75246;SDS011;63844;50.042;19.224;2023-01-24T19:48:50;11.80;;;5.20;;
75246;SDS011;63844;50.042;19.224;2023-01-24T19:51:18;9.60;;;3.80;;
75246;SDS011;63844;50.042;19.224;2023-01-24T19:53:44;18.20;;;6.90;;
75246;SDS011;63844;50.042;19.224;2023-01-24T19:56:14;20.60;;;8.40;;
75246;SDS011;63844;50.042;19.224;2023-01-24T19:58:42;25.20;;;10.30;;
75246;SDS011;63844;50.042;19.224;2023-01-24T20:01:15;35.80;;;13.70;;
75246;SDS011;63844;50.042;19.224;2023-01-24T20:03:44;17.20;;;7.50;;
75246;SDS011;63844;50.042;19.224;2023-01-24T20:06:13;23.50;;;9.50;;
75246;SDS011;63844;50.042;19.224;2023-01-24T20:08:49;22.60;;;8.30;;
75246;SDS011;63844;50.042;19.224;2023-01-24T20:11:17;11.80;;;4.40;;
75246;SDS011;63844;50.042;19.224;2023-01-24T20:16:17;12.10;;;5.10;;
75246;SDS011;63844;50.042;19.224;2023-01-24T20:18:49;13.20;;;5.50;;
75246;SDS011;63844;50.042;19.224;2023-01-24T20:21:17;14.20;;;6.00;;
75246;SDS011;63844;50.042;19.224;2023-01-24T20:23:44;21.40;;;8.30;;
75246;SDS011;63844;50.042;19.224;2023-01-24T20:26:12;21.70;;;8.80;;
75246;SDS011;63844;50.042;19.224;2023-01-24T20:28:40;20.20;;;8.50;;
75246;SDS011;63844;50.042;19.224;2023-01-24T20:31:08;17.60;;;8.00;;
75246;SDS011;63844;50.042;19.224;2023-01-24T20:33:36;19.80;;;7.20;;
75246;SDS011;63844;50.042;19.224;2023-01-24T20:36:04;18.40;;;7.40;;
75246;SDS011;63844;50.042;19.224;2023-01-24T20:38:33;19.60;;;7.30;;
75246;SDS011;63844;50.042;19.224;2023-01-24T20:41:01;19.50;;;7.60;;
75246;SDS011;63844;50.042;19.224;2023-01-24T20:43:29;12.70;;;5.90;;
75246;SDS011;63844;50.042;19.224;2023-01-24T20:46:04;14.40;;;6.30;;
75246;SDS011;63844;50.042;19.224;2023-01-24T20:48:32;15.50;;;5.60;;
75246;SDS011;63844;50.042;19.224;2023-01-24T20:50:59;13.20;;;5.00;;
75246;SDS011;63844;50.042;19.224;2023-01-24T20:53:27;11.20;;;4.50;;
75246;SDS011;63844;50.042;19.224;2023-01-24T20:55:54;6.50;;;2.70;;
75246;SDS011;63844;50.042;19.224;2023-01-24T20:58:22;9.90;;;5.30;;
75246;SDS011;63844;50.042;19.224;2023-01-24T21:00:51;13.50;;;5.20;;
75246;SDS011;63844;50.042;19.224;2023-01-24T21:03:23;7.90;;;3.60;;
75246;SDS011;63844;50.042;19.224;2023-01-24T21:06:02;6.60;;;2.50;;
75246;SDS011;63844;50.042;19.224;2023-01-24T21:08:47;6.60;;;3.40;;
75246;SDS011;63844;50.042;19.224;2023-01-24T21:11:26;6.90;;;3.70;;
75246;SDS011;63844;50.042;19.224;2023-01-24T21:14:00;6.60;;;3.30;;
75246;SDS011;63844;50.042;19.224;2023-01-24T21:16:32;7.70;;;3.80;;
75246;SDS011;63844;50.042;19.224;2023-01-24T21:19:01;10.50;;;4.30;;
75246;SDS011;63844;50.042;19.224;2023-01-24T21:21:38;6.50;;;3.50;;
75246;SDS011;63844;50.042;19.224;2023-01-24T21:24:10;4.60;;;2.20;;
75246;SDS011;63844;50.042;19.224;2023-01-24T21:26:56;8.30;;;3.90;;
75246;SDS011;63844;50.042;19.224;2023-01-24T21:32:04;8.40;;;3.80;;
75246;SDS011;63844;50.042;19.224;2023-01-24T21:34:34;5.70;;;2.10;;
75246;SDS011;63844;50.042;19.224;2023-01-24T21:37:01;7.40;;;3.00;;
75246;SDS011;63844;50.042;19.224;2023-01-24T21:39:34;4.60;;;1.90;;
75246;SDS011;63844;50.042;19.224;2023-01-24T21:42:07;8.70;;;4.50;;
75246;SDS011;63844;50.042;19.224;2023-01-24T21:44:49;4.70;;;2.30;;
75246;SDS011;63844;50.042;19.224;2023-01-24T21:47:16;12.50;;;5.90;;
75246;SDS011;63844;50.042;19.224;2023-01-24T21:49:51;7.90;;;3.90;;
75246;SDS011;63844;50.042;19.224;2023-01-24T21:52:53;12.00;;;5.40;;
75246;SDS011;63844;50.042;19.224;2023-01-24T21:55:20;10.10;;;4.80;;
75246;SDS011;63844;50.042;19.224;2023-01-24T21:57:55;8.90;;;4.20;;
75246;SDS011;63844;50.042;19.224;2023-01-24T22:00:31;10.10;;;4.60;;
75246;SDS011;63844;50.042;19.224;2023-01-24T22:02:58;13.00;;;4.70;;
75246;SDS011;63844;50.042;19.224;2023-01-24T22:06:04;11.00;;;4.20;;
75246;SDS011;63844;50.042;19.224;2023-01-24T22:09:09;8.20;;;4.00;;
75246;SDS011;63844;50.042;19.224;2023-01-24T22:12:03;9.70;;;4.30;;
75246;SDS011;63844;50.042;19.224;2023-01-24T22:14:36;8.10;;;3.90;;
75246;SDS011;63844;50.042;19.224;2023-01-24T22:17:14;10.90;;;4.50;;
75246;SDS011;63844;50.042;19.224;2023-01-24T22:19:57;10.90;;;5.10;;
75246;SDS011;63844;50.042;19.224;2023-01-24T22:22:34;9.20;;;4.40;;
75246;SDS011;63844;50.042;19.224;2023-01-24T22:25:35;11.60;;;5.60;;
75246;SDS011;63844;50.042;19.224;2023-01-24T22:28:41;9.50;;;4.20;;
75246;SDS011;63844;50.042;19.224;2023-01-24T22:31:12;7.00;;;3.60;;
75246;SDS011;63844;50.042;19.224;2023-01-24T22:33:39;8.00;;;3.80;;
75246;SDS011;63844;50.042;19.224;2023-01-24T22:36:07;9.10;;;4.10;;
75246;SDS011;63844;50.042;19.224;2023-01-24T22:38:35;3.50;;;1.80;;
75246;SDS011;63844;50.042;19.224;2023-01-24T22:41:01;8.00;;;3.70;;
75246;SDS011;63844;50.042;19.224;2023-01-24T22:43:27;8.20;;;4.10;;
75246;SDS011;63844;50.042;19.224;2023-01-24T22:45:54;7.60;;;3.60;;
75246;SDS011;63844;50.042;19.224;2023-01-24T22:48:20;9.80;;;4.20;;
75246;SDS011;63844;50.042;19.224;2023-01-24T22:50:47;10.70;;;4.60;;
75246;SDS011;63844;50.042;19.224;2023-01-24T22:53:14;11.80;;;5.70;;
75246;SDS011;63844;50.042;19.224;2023-01-24T22:55:40;7.40;;;4.00;;
75246;SDS011;63844;50.042;19.224;2023-01-24T22:58:07;7.70;;;3.90;;
75246;SDS011;63844;50.042;19.224;2023-01-24T23:00:34;7.80;;;3.50;;
75246;SDS011;63844;50.042;19.224;2023-01-24T23:03:00;7.40;;;3.30;;
75246;SDS011;63844;50.042;19.224;2023-01-24T23:05:26;4.70;;;2.10;;
75246;SDS011;63844;50.042;19.224;2023-01-24T23:07:53;7.90;;;3.60;;
75246;SDS011;63844;50.042;19.224;2023-01-24T23:10:19;5.20;;;2.60;;
75246;SDS011;63844;50.042;19.224;2023-01-24T23:12:46;6.40;;;3.00;;
75246;SDS011;63844;50.042;19.224;2023-01-24T23:15:31;6.30;;;3.40;;
75246;SDS011;63844;50.042;19.224;2023-01-24T23:18:19;6.50;;;2.60;;
75246;SDS011;63844;50.042;19.224;2023-01-24T23:21:09;7.80;;;3.00;;
75246;SDS011;63844;50.042;19.224;2023-01-24T23:23:58;5.50;;;2.80;;
75246;SDS011;63844;50.042;19.224;2023-01-24T23:26:25;7.20;;;3.40;;
75246;SDS011;63844;50.042;19.224;2023-01-24T23:28:55;9.60;;;3.70;;
75246;SDS011;63844;50.042;19.224;2023-01-24T23:31:36;4.90;;;2.10;;
75246;SDS011;63844;50.042;19.224;2023-01-24T23:34:05;9.30;;;4.60;;
75246;SDS011;63844;50.042;19.224;2023-01-24T23:36:32;6.60;;;2.80;;
75246;SDS011;63844;50.042;19.224;2023-01-24T23:38:59;5.90;;;3.10;;
75246;SDS011;63844;50.042;19.224;2023-01-24T23:41:25;4.30;;;2.20;;
75246;SDS011;63844;50.042;19.224;2023-01-24T23:43:52;4.90;;;2.20;;
75246;SDS011;63844;50.042;19.224;2023-01-24T23:46:18;5.50;;;2.80;;
75246;SDS011;63844;50.042;19.224;2023-01-24T23:48:44;5.20;;;2.60;;
75246;SDS011;63844;50.042;19.224;2023-01-24T23:51:11;5.30;;;3.20;;
75246;SDS011;63844;50.042;19.224;2023-01-24T23:53:37;5.00;;;2.00;;
75246;SDS011;63844;50.042;19.224;2023-01-24T23:56:04;5.60;;;2.10;;
75246;SDS011;63844;50.042;19.224;2023-01-24T23:58:31;6.40;;;2.40;;
